KPBI

Palm Beach International Airport

West Palm Beach, Florida, USA
KPBI 210257Z 2103/2124 VRB03KT P6SM SCT025 BKN250 FM211400 11008KT P6SM SCT030 SCT250
Issued Valid From Valid To
Aug-21 @ 02:57 UTC
(15 hours ago)
Aug-21 @ 03:00 UTC
(15 hours ago)
Aug-22 @ 00:00 UTC
(in 6 hours)
Expired Click to View Aug-21 @ 03:00 to Aug-21 @ 14:00
KPBI 210257Z 2103/2124 VRB03KT P6SM SCT025 BKN250
Wind Visibility Clouds
Variable at 3 knots Greater than 6 miles
  • Scattered at 2,500' AGL
  • Broken at 25,000' AGL
From Aug-21 @ 14:00 to Aug-22 @ 00:00
FM211400 11008KT P6SM SCT030 SCT250
Wind Visibility Clouds
110° at 8 knots Greater than 6 miles
  • Scattered at 3,000' AGL
  • Scattered at 25,000' AGL
KPBI 210257Z 2103/2124 VRB03KT P6SM SCT025 BKN250 FM211400 11008KT P6SM SCT030 SCT250
Issued Aug-21 @ 02:57 UTC
(15 hours ago)
Valid From Aug-21 @ 03:00 UTC
(15 hours ago)
Valid To Aug-22 @ 00:00 UTC
(in 6 hours)
Aug-21 @ 03:00 - Aug-21 @ 14:00
Wind Visibility
Variable at 3 knots Greater than 6 miles
Clouds
  • Scattered at 2,500' AGL
  • Broken at 25,000' AGL
From Aug-21 @ 14:00 - Aug-22 @ 00:00
Wind Visibility
110° at 8 knots Greater than 6 miles
Clouds
  • Scattered at 3,000' AGL
  • Scattered at 25,000' AGL